This is the latest recevied weather packets stored in our database for station/object EA1FBN. If no packets are shown the sender has not sent any weather packets the latest 10 day(s).
| Time | Temp. | Humidity | Pressure | Rain* | Wind** | Luminosity | Snow |
|---|---|---|---|---|---|---|---|
| 1778168400 | 10° C | 48% | 1011.4 hPa | 0 mm | - | - | - |
| 1778168100 | 10° C | 49% | 1011.5 hPa | 0 mm | - | - | - |
| 1778167800 | 10° C | 50% | 1011.5 hPa | 2.03 mm | - | - | - |
| 1778167500 | 9.44° C | 51% | 1011.4 hPa | 2.79 mm | - | - | - |
| 1778167200 | 9.44° C | 52% | 1011.3 hPa | 2.79 mm | - | - | - |
| 1778166900 | 9.44° C | 54% | 1011.3 hPa | 2.79 mm | - | - | - |
| 1778166600 | 9.44° C | 55% | 1011.2 hPa | 3.56 mm | - | - | - |
| 1778166300 | 9.44° C | 57% | 1011.2 hPa | 3.56 mm | - | - | - |
| 1778166000 | 9.44° C | 60% | 1011.3 hPa | 3.56 mm | - | - | - |
| 1778165700 | 9.44° C | 63% | 1011.3 hPa | 3.56 mm | - | - | - |
| 1778165400 | 9.44° C | 66% | 1011.3 hPa | 3.56 mm | - | - | - |
| 1778165100 | 9.44° C | 72% | 1011.3 hPa | 3.56 mm | - | - | - |
| 1778164800 | 10.56° C | 74% | 1011.4 hPa | 3.56 mm | - | - | - |
| 1778164500 | 12.22° C | 67% | 1011.6 hPa | 3.56 mm | - | - | - |
| 1778164200 | 13.33° C | 62% | 1011.4 hPa | 1.52 mm | - | - | - |
| 1778163900 | 14.44° C | 57% | 1011.1 hPa | 0.76 mm | - | - | - |
| 1778163600 | 15° C | 56% | 1010.9 hPa | 0.76 mm | - | - | - |
| 1778163300 | 16.11° C | 52% | 1010.6 hPa | 0.76 mm | - | - | - |
| 1778163000 | 16.67° C | 52% | 1010.3 hPa | 0 mm | - | - | - |
| 1778162700 | 16.67° C | 52% | 1010 hPa | 0 mm | - | - | - |
| 1778162400 | 16.67° C | 53% | 1010 hPa | 0 mm | - | - | - |
| 1778162100 | 17.22° C | 52% | 1009.9 hPa | 0 mm | - | - | - |
| 1778161800 | 17.22° C | 53% | 1009.9 hPa | 0 mm | - | - | - |
| 1778161500 | 17.22° C | 50% | 1009.9 hPa | 0 mm | - | - | - |
| 1778161200 | 17.78° C | 53% | 1009.9 hPa | 0 mm | - | - | - |
* Rain latest hour (hover to see other rain measurements)
** Current wind speed in m/s (hover to see current wind gust speed)